sensor_id;sensor_type;location;lat;lon;timestamp;pressure;altitude;pressure_sealevel;temperature;humidity
11672;BME280;5892;43.412;24.612;2023-05-23T00:02:12;99779.75;;;15.38;100.00
11672;BME280;5892;43.412;24.612;2023-05-23T00:04:40;99766.63;;;15.19;100.00
11672;BME280;5892;43.412;24.612;2023-05-23T00:07:07;99784.81;;;15.20;100.00
11672;BME280;5892;43.412;24.612;2023-05-23T00:09:34;99781.44;;;15.27;100.00
11672;BME280;5892;43.412;24.612;2023-05-23T00:12:01;99782.59;;;15.26;100.00
11672;BME280;5892;43.412;24.612;2023-05-23T00:14:28;99788.56;;;15.28;100.00
11672;BME280;5892;43.412;24.612;2023-05-23T00:16:58;99782.59;;;15.26;100.00
11672;BME280;5892;43.412;24.612;2023-05-23T00:19:27;99781.31;;;15.08;100.00
11672;BME280;5892;43.412;24.612;2023-05-23T00:21:53;99783.13;;;14.88;100.00
11672;BME280;5892;43.412;24.612;2023-05-23T00:24:23;99777.88;;;14.83;100.00
11672;BME280;5892;43.412;24.612;2023-05-23T00:26:50;99770.09;;;14.73;100.00
11672;BME280;5892;43.412;24.612;2023-05-23T00:29:17;99775.22;;;14.59;100.00
11672;BME280;5892;43.412;24.612;2023-05-23T00:31:44;99777.66;;;14.48;100.00
11672;BME280;5892;43.412;24.612;2023-05-23T00:34:11;99775.59;;;14.45;100.00
11672;BME280;5892;43.412;24.612;2023-05-23T00:36:40;99775.00;;;14.52;100.00
11672;BME280;5892;43.412;24.612;2023-05-23T00:39:08;99755.59;;;14.48;100.00
11672;BME280;5892;43.412;24.612;2023-05-23T00:41:43;99782.59;;;14.55;100.00
11672;BME280;5892;43.412;24.612;2023-05-23T00:44:10;99783.63;;;14.50;100.00
11672;BME280;5892;43.412;24.612;2023-05-23T00:46:37;99785.53;;;14.62;100.00
11672;BME280;5892;43.412;24.612;2023-05-23T00:49:04;99775.56;;;14.57;100.00
11672;BME280;5892;43.412;24.612;2023-05-23T00:51:32;99782.69;;;14.58;100.00
11672;BME280;5892;43.412;24.612;2023-05-23T00:54:03;99787.25;;;14.66;100.00
11672;BME280;5892;43.412;24.612;2023-05-23T00:56:31;99762.66;;;14.61;100.00
11672;BME280;5892;43.412;24.612;2023-05-23T00:58:58;99783.66;;;14.66;100.00
11672;BME280;5892;43.412;24.612;2023-05-23T01:01:26;99774.41;;;14.58;100.00
11672;BME280;5892;43.412;24.612;2023-05-23T01:03:52;99778.56;;;14.52;100.00
11672;BME280;5892;43.412;24.612;2023-05-23T01:06:19;99776.16;;;14.51;100.00
11672;BME280;5892;43.412;24.612;2023-05-23T01:08:46;99774.66;;;14.53;100.00
11672;BME280;5892;43.412;24.612;2023-05-23T01:11:22;99776.06;;;14.47;100.00
11672;BME280;5892;43.412;24.612;2023-05-23T01:13:58;99767.78;;;14.47;100.00
11672;BME280;5892;43.412;24.612;2023-05-23T01:16:33;99766.28;;;14.50;100.00
11672;BME280;5892;43.412;24.612;2023-05-23T01:19:12;99768.50;;;14.44;100.00
11672;BME280;5892;43.412;24.612;2023-05-23T01:21:45;99758.94;;;14.41;100.00
11672;BME280;5892;43.412;24.612;2023-05-23T01:24:33;99760.09;;;14.40;100.00
11672;BME280;5892;43.412;24.612;2023-05-23T01:27:19;99759.75;;;14.42;100.00
11672;BME280;5892;43.412;24.612;2023-05-23T01:29:53;99764.81;;;14.40;100.00
11672;BME280;5892;43.412;24.612;2023-05-23T01:32:23;99761.81;;;14.33;100.00
11672;BME280;5892;43.412;24.612;2023-05-23T01:34:52;99760.00;;;14.37;100.00
11672;BME280;5892;43.412;24.612;2023-05-23T01:37:19;99761.81;;;14.33;100.00
11672;BME280;5892;43.412;24.612;2023-05-23T01:39:46;99753.09;;;14.31;100.00
11672;BME280;5892;43.412;24.612;2023-05-23T01:42:13;99751.72;;;14.25;100.00
11672;BME280;5892;43.412;24.612;2023-05-23T01:44:40;99751.47;;;14.30;100.00
11672;BME280;5892;43.412;24.612;2023-05-23T01:47:09;99755.19;;;14.22;100.00
11672;BME280;5892;43.412;24.612;2023-05-23T01:49:37;99666.13;;;13.66;100.00
11672;BME280;5892;43.412;24.612;2023-05-23T01:52:07;99749.44;;;14.15;100.00
11672;BME280;5892;43.412;24.612;2023-05-23T01:54:35;99746.94;;;14.10;100.00
11672;BME280;5892;43.412;24.612;2023-05-23T01:57:04;99746.75;;;14.03;100.00
11672;BME280;5892;43.412;24.612;2023-05-23T01:59:31;99752.47;;;13.97;100.00
11672;BME280;5892;43.412;24.612;2023-05-23T02:01:58;99750.88;;;13.96;100.00
11672;BME280;5892;43.412;24.612;2023-05-23T02:04:28;99760.06;;;13.88;100.00
11672;BME280;5892;43.412;24.612;2023-05-23T02:06:56;99757.53;;;13.95;100.00
11672;BME280;5892;43.412;24.612;2023-05-23T02:09:22;99745.25;;;13.93;100.00
11672;BME280;5892;43.412;24.612;2023-05-23T02:11:49;99757.78;;;13.90;100.00
11672;BME280;5892;43.412;24.612;2023-05-23T02:14:16;99754.78;;;13.95;100.00
11672;BME280;5892;43.412;24.612;2023-05-23T02:16:44;99761.91;;;13.84;100.00
11672;BME280;5892;43.412;24.612;2023-05-23T02:19:10;99762.72;;;13.85;100.00
11672;BME280;5892;43.412;24.612;2023-05-23T02:21:39;99763.50;;;13.85;100.00
11672;BME280;5892;43.412;24.612;2023-05-23T02:24:06;99765.69;;;13.80;100.00
11672;BME280;5892;43.412;24.612;2023-05-23T02:26:32;99767.88;;;13.74;100.00
11672;BME280;5892;43.412;24.612;2023-05-23T02:28:59;99772.81;;;13.81;100.00
11672;BME280;5892;43.412;24.612;2023-05-23T02:31:26;99774.75;;;13.80;100.00
11672;BME280;5892;43.412;24.612;2023-05-23T02:33:53;99771.09;;;13.76;100.00
11672;BME280;5892;43.412;24.612;2023-05-23T02:36:20;99785.06;;;13.83;100.00
11672;BME280;5892;43.412;24.612;2023-05-23T02:38:48;99775.91;;;13.79;100.00
11672;BME280;5892;43.412;24.612;2023-05-23T02:41:15;99782.53;;;13.66;100.00
11672;BME280;5892;43.412;24.612;2023-05-23T02:43:44;99780.97;;;13.65;100.00
11672;BME280;5892;43.412;24.612;2023-05-23T02:46:11;99771.06;;;13.52;100.00
11672;BME280;5892;43.412;24.612;2023-05-23T02:48:39;99787.28;;;13.66;100.00
11672;BME280;5892;43.412;24.612;2023-05-23T02:51:05;99793.78;;;13.61;100.00
11672;BME280;5892;43.412;24.612;2023-05-23T02:53:32;99769.25;;;13.44;100.00
11672;BME280;5892;43.412;24.612;2023-05-23T02:56:00;99755.91;;;13.46;100.00
11672;BME280;5892;43.412;24.612;2023-05-23T02:58:27;99784.84;;;13.64;100.00
11672;BME280;5892;43.412;24.612;2023-05-23T03:00:54;99793.66;;;13.57;100.00
11672;BME280;5892;43.412;24.612;2023-05-23T03:03:21;99789.56;;;13.64;100.00
11672;BME280;5892;43.412;24.612;2023-05-23T03:05:48;99786.09;;;13.79;100.00
11672;BME280;5892;43.412;24.612;2023-05-23T03:08:15;99780.25;;;13.92;100.00
11672;BME280;5892;43.412;24.612;2023-05-23T03:10:42;99785.63;;;14.37;100.00
11672;BME280;5892;43.412;24.612;2023-05-23T03:13:11;99788.84;;;14.67;100.00
11672;BME280;5892;43.412;24.612;2023-05-23T03:15:37;99787.72;;;14.96;100.00
11672;BME280;5892;43.412;24.612;2023-05-23T03:18:04;99795.75;;;15.17;100.00
11672;BME280;5892;43.412;24.612;2023-05-23T03:20:31;99785.66;;;15.52;100.00
11672;BME280;5892;43.412;24.612;2023-05-23T03:22:58;99796.94;;;16.10;100.00
11672;BME280;5892;43.412;24.612;2023-05-23T03:25:25;99790.53;;;16.41;100.00
11672;BME280;5892;43.412;24.612;2023-05-23T03:27:52;99802.47;;;16.80;100.00
11672;BME280;5892;43.412;24.612;2023-05-23T03:30:20;99795.84;;;17.26;100.00
11672;BME280;5892;43.412;24.612;2023-05-23T03:32:47;99812.72;;;17.41;100.00
11672;BME280;5892;43.412;24.612;2023-05-23T03:35:14;99817.59;;;17.47;100.00
11672;BME280;5892;43.412;24.612;2023-05-23T03:37:41;99814.97;;;17.77;100.00
11672;BME280;5892;43.412;24.612;2023-05-23T03:40:08;99818.94;;;18.29;100.00
11672;BME280;5892;43.412;24.612;2023-05-23T03:42:35;99812.56;;;18.25;100.00
11672;BME280;5892;43.412;24.612;2023-05-23T03:45:03;99817.59;;;18.72;100.00
11672;BME280;5892;43.412;24.612;2023-05-23T03:47:32;99810.91;;;18.76;100.00
11672;BME280;5892;43.412;24.612;2023-05-23T03:49:59;99818.28;;;18.95;100.00
11672;BME280;5892;43.412;24.612;2023-05-23T03:52:25;99819.44;;;19.61;100.00
11672;BME280;5892;43.412;24.612;2023-05-23T03:54:52;99828.28;;;19.36;100.00
11672;BME280;5892;43.412;24.612;2023-05-23T03:57:19;99816.84;;;19.85;98.38
11672;BME280;5892;43.412;24.612;2023-05-23T03:59:47;99812.97;;;19.94;97.32
11672;BME280;5892;43.412;24.612;2023-05-23T04:02:14;99828.41;;;20.35;95.14
11672;BME280;5892;43.412;24.612;2023-05-23T04:04:42;99822.03;;;20.35;84.46
11672;BME280;5892;43.412;24.612;2023-05-23T04:07:09;99827.88;;;20.26;84.04
11672;BME280;5892;43.412;24.612;2023-05-23T04:09:36;99820.94;;;20.50;82.48
11672;BME280;5892;43.412;24.612;2023-05-23T04:12:03;99820.56;;;20.51;82.79
11672;BME280;5892;43.412;24.612;2023-05-23T04:14:31;99821.47;;;20.84;80.62
11672;BME280;5892;43.412;24.612;2023-05-23T04:16:58;99825.56;;;21.11;79.47
11672;BME280;5892;43.412;24.612;2023-05-23T04:19:26;99830.34;;;21.03;79.93
11672;BME280;5892;43.412;24.612;2023-05-23T04:21:54;99822.47;;;21.27;79.02
11672;BME280;5892;43.412;24.612;2023-05-23T04:24:21;99827.31;;;21.51;78.31
11672;BME280;5892;43.412;24.612;2023-05-23T04:26:48;99824.06;;;21.24;78.92
11672;BME280;5892;43.412;24.612;2023-05-23T04:29:14;99830.88;;;21.51;78.36
11672;BME280;5892;43.412;24.612;2023-05-23T04:31:41;99828.88;;;21.34;78.47
11672;BME280;5892;43.412;24.612;2023-05-23T04:34:10;99832.47;;;21.38;79.42
11672;BME280;5892;43.412;24.612;2023-05-23T04:36:37;99838.47;;;21.54;77.60
11672;BME280;5892;43.412;24.612;2023-05-23T04:39:06;99846.47;;;21.81;77.04
11672;BME280;5892;43.412;24.612;2023-05-23T04:41:32;99836.16;;;21.95;75.62
11672;BME280;5892;43.412;24.612;2023-05-23T04:44:00;99836.03;;;21.46;79.35
11672;BME280;5892;43.412;24.612;2023-05-23T04:46:27;99836.03;;;21.42;78.98
11672;BME280;5892;43.412;24.612;2023-05-23T04:48:54;99835.66;;;21.44;78.24
11672;BME280;5892;43.412;24.612;2023-05-23T04:51:23;99834.50;;;21.73;76.79
11672;BME280;5892;43.412;24.612;2023-05-23T04:53:50;99823.31;;;21.34;78.13
11672;BME280;5892;43.412;24.612;2023-05-23T04:56:18;99835.56;;;21.16;79.89
11672;BME280;5892;43.412;24.612;2023-05-23T04:58:46;99841.22;;;21.47;78.89
11672;BME280;5892;43.412;24.612;2023-05-23T05:01:13;99844.84;;;21.69;77.60
11672;BME280;5892;43.412;24.612;2023-05-23T05:03:40;99844.47;;;21.85;78.31
11672;BME280;5892;43.412;24.612;2023-05-23T05:06:07;99845.25;;;21.89;78.78
11672;BME280;5892;43.412;24.612;2023-05-23T05:08:34;99844.09;;;22.04;78.36
11672;BME280;5892;43.412;24.612;2023-05-23T05:11:02;99838.53;;;22.18;78.93
11672;BME280;5892;43.412;24.612;2023-05-23T05:13:30;99827.34;;;22.25;79.89
11672;BME280;5892;43.412;24.612;2023-05-23T05:15:57;99829.34;;;22.14;80.25
11672;BME280;5892;43.412;24.612;2023-05-23T05:18:25;99836.13;;;22.24;80.23
11672;BME280;5892;43.412;24.612;2023-05-23T05:20:52;99831.34;;;22.17;80.02
11672;BME280;5892;43.412;24.612;2023-05-23T05:23:19;99827.38;;;21.97;81.54
11672;BME280;5892;43.412;24.612;2023-05-23T05:25:48;99834.53;;;22.09;81.27
11672;BME280;5892;43.412;24.612;2023-05-23T05:28:15;99815.41;;;22.28;80.91
11672;BME280;5892;43.412;24.612;2023-05-23T05:30:43;99838.06;;;22.55;80.56
11672;BME280;5892;43.412;24.612;2023-05-23T05:33:10;99836.88;;;22.46;80.53
11672;BME280;5892;43.412;24.612;2023-05-23T05:35:37;99841.31;;;22.39;80.35
11672;BME280;5892;43.412;24.612;2023-05-23T05:38:04;99821.75;;;22.50;79.24
11672;BME280;5892;43.412;24.612;2023-05-23T05:40:32;99816.09;;;22.64;78.43
11672;BME280;5892;43.412;24.612;2023-05-23T05:42:59;99828.88;;;22.62;79.67
11672;BME280;5892;43.412;24.612;2023-05-23T05:45:26;99829.28;;;22.71;79.47
11672;BME280;5892;43.412;24.612;2023-05-23T05:47:54;99839.63;;;22.81;78.71
11672;BME280;5892;43.412;24.612;2023-05-23T05:50:24;99839.53;;;23.06;77.98
11672;BME280;5892;43.412;24.612;2023-05-23T05:52:51;99844.72;;;23.07;77.93
11672;BME280;5892;43.412;24.612;2023-05-23T05:55:17;99831.81;;;23.31;76.84
11672;BME280;5892;43.412;24.612;2023-05-23T05:57:44;99828.47;;;23.57;75.60
11672;BME280;5892;43.412;24.612;2023-05-23T06:00:12;99823.41;;;23.31;75.97
11672;BME280;5892;43.412;24.612;2023-05-23T06:02:40;99825.81;;;23.33;75.44
11672;BME280;5892;43.412;24.612;2023-05-23T06:05:13;99835.59;;;23.69;74.71
11672;BME280;5892;43.412;24.612;2023-05-23T06:07:42;99826.94;;;23.46;70.02
11672;BME280;5892;43.412;24.612;2023-05-23T06:10:10;99830.81;;;23.66;68.36
11672;BME280;5892;43.412;24.612;2023-05-23T06:12:38;99837.84;;;23.88;67.21
11672;BME280;5892;43.412;24.612;2023-05-23T06:15:06;99839.13;;;23.80;68.82
11672;BME280;5892;43.412;24.612;2023-05-23T06:17:34;99832.56;;;24.01;68.14
11672;BME280;5892;43.412;24.612;2023-05-23T06:20:01;99815.84;;;23.90;69.23
11672;BME280;5892;43.412;24.612;2023-05-23T06:22:30;99814.16;;;23.48;68.74
11672;BME280;5892;43.412;24.612;2023-05-23T06:24:56;99827.41;;;23.96;68.79
11672;BME280;5892;43.412;24.612;2023-05-23T06:27:23;99847.22;;;24.16;67.69
11672;BME280;5892;43.412;24.612;2023-05-23T06:29:50;99838.94;;;24.01;69.02
11672;BME280;5892;43.412;24.612;2023-05-23T06:32:17;99842.69;;;23.84;68.89
11672;BME280;5892;43.412;24.612;2023-05-23T06:34:44;99835.38;;;23.97;69.41
11672;BME280;5892;43.412;24.612;2023-05-23T06:37:11;99826.03;;;23.63;70.43
11672;BME280;5892;43.412;24.612;2023-05-23T06:39:39;99833.13;;;23.78;70.37
11672;BME280;5892;43.412;24.612;2023-05-23T06:42:06;99825.00;;;23.94;69.27
11672;BME280;5892;43.412;24.612;2023-05-23T06:44:33;99833.94;;;24.27;67.89
11672;BME280;5892;43.412;24.612;2023-05-23T06:47:00;99829.00;;;23.93;68.92
11672;BME280;5892;43.412;24.612;2023-05-23T06:49:26;99826.41;;;24.17;69.02
11672;BME280;5892;43.412;24.612;2023-05-23T06:51:53;99833.25;;;24.57;67.70
11672;BME280;5892;43.412;24.612;2023-05-23T06:54:20;99826.78;;;24.63;69.36
11672;BME280;5892;43.412;24.612;2023-05-23T06:56:49;99824.47;;;24.55;68.96
11672;BME280;5892;43.412;24.612;2023-05-23T06:59:16;99828.38;;;24.61;68.64
11672;BME280;5892;43.412;24.612;2023-05-23T07:01:43;99833.06;;;24.74;68.06
11672;BME280;5892;43.412;24.612;2023-05-23T07:04:10;99828.91;;;24.52;69.58
11672;BME280;5892;43.412;24.612;2023-05-23T07:06:37;99843.75;;;24.83;67.58
11672;BME280;5892;43.412;24.612;2023-05-23T07:09:05;99826.09;;;24.52;67.94
11672;BME280;5892;43.412;24.612;2023-05-23T07:11:32;99825.25;;;24.55;68.34
11672;BME280;5892;43.412;24.612;2023-05-23T07:14:01;99831.63;;;24.59;68.33
11672;BME280;5892;43.412;24.612;2023-05-23T07:16:28;99824.31;;;24.69;68.52
11672;BME280;5892;43.412;24.612;2023-05-23T07:18:55;99841.59;;;24.60;68.09
11672;BME280;5892;43.412;24.612;2023-05-23T07:21:21;99839.63;;;24.57;69.73
11672;BME280;5892;43.412;24.612;2023-05-23T07:23:48;99837.69;;;24.54;69.23
11672;BME280;5892;43.412;24.612;2023-05-23T07:26:15;99838.19;;;24.79;67.59
11672;BME280;5892;43.412;24.612;2023-05-23T07:28:42;99834.84;;;24.58;68.31
11672;BME280;5892;43.412;24.612;2023-05-23T07:31:10;99834.03;;;24.95;67.26
11672;BME280;5892;43.412;24.612;2023-05-23T07:33:38;99827.63;;;25.24;65.72
11672;BME280;5892;43.412;24.612;2023-05-23T07:36:05;99828.44;;;24.57;67.74
11672;BME280;5892;43.412;24.612;2023-05-23T07:38:33;99826.59;;;24.77;66.50
11672;BME280;5892;43.412;24.612;2023-05-23T07:40:59;99824.19;;;24.79;67.09
11672;BME280;5892;43.412;24.612;2023-05-23T07:43:26;99797.38;;;24.78;67.76
11672;BME280;5892;43.412;24.612;2023-05-23T07:45:53;99824.09;;;24.90;66.09
11672;BME280;5892;43.412;24.612;2023-05-23T07:48:21;99821.28;;;24.86;66.43
11672;BME280;5892;43.412;24.612;2023-05-23T07:50:48;99821.16;;;25.01;66.14
11672;BME280;5892;43.412;24.612;2023-05-23T07:53:19;99824.94;;;25.17;63.64
11672;BME280;5892;43.412;24.612;2023-05-23T07:55:46;99820.63;;;25.09;64.74
11672;BME280;5892;43.412;24.612;2023-05-23T07:58:13;99825.38;;;25.12;64.09
11672;BME280;5892;43.412;24.612;2023-05-23T08:00:40;99821.69;;;24.88;64.50
11672;BME280;5892;43.412;24.612;2023-05-23T08:03:08;99817.16;;;25.02;64.73
11672;BME280;5892;43.412;24.612;2023-05-23T08:05:37;99817.97;;;25.29;62.51
11672;BME280;5892;43.412;24.612;2023-05-23T08:08:04;99817.31;;;25.48;61.73
11672;BME280;5892;43.412;24.612;2023-05-23T08:10:31;99814.91;;;26.00;60.15
11672;BME280;5892;43.412;24.612;2023-05-23T08:12:58;99801.03;;;26.13;55.99
11672;BME280;5892;43.412;24.612;2023-05-23T08:15:31;99808.72;;;26.09;57.06
11672;BME280;5892;43.412;24.612;2023-05-23T08:18:00;99806.59;;;26.17;56.45
11672;BME280;5892;43.412;24.612;2023-05-23T08:20:27;99813.72;;;26.44;55.49
11672;BME280;5892;43.412;24.612;2023-05-23T08:22:58;99805.66;;;26.46;56.23
11672;BME280;5892;43.412;24.612;2023-05-23T08:25:25;99810.44;;;26.69;55.66
11672;BME280;5892;43.412;24.612;2023-05-23T08:27:55;99802.53;;;26.84;54.52
11672;BME280;5892;43.412;24.612;2023-05-23T08:30:22;99736.78;;;26.38;55.48
11672;BME280;5892;43.412;24.612;2023-05-23T08:32:50;99802.34;;;26.94;54.42
11672;BME280;5892;43.412;24.612;2023-05-23T08:35:17;99797.09;;;27.13;53.56
11672;BME280;5892;43.412;24.612;2023-05-23T08:37:44;99795.28;;;27.22;53.00
11672;BME280;5892;43.412;24.612;2023-05-23T08:40:18;99803.06;;;26.36;51.23
11672;BME280;5892;43.412;24.612;2023-05-23T08:42:46;99802.34;;;26.51;51.67
11672;BME280;5892;43.412;24.612;2023-05-23T08:45:13;99793.84;;;26.35;51.69
11672;BME280;5892;43.412;24.612;2023-05-23T08:47:42;99795.78;;;26.15;52.07
11672;BME280;5892;43.412;24.612;2023-05-23T08:50:11;99793.47;;;26.33;51.59
11672;BME280;5892;43.412;24.612;2023-05-23T08:52:42;99796.16;;;26.40;50.72
11672;BME280;5892;43.412;24.612;2023-05-23T08:55:10;99784.63;;;26.35;50.09
11672;BME280;5892;43.412;24.612;2023-05-23T08:57:39;99787.50;;;26.31;52.52
11672;BME280;5892;43.412;24.612;2023-05-23T09:00:10;99770.69;;;26.28;52.88
11672;BME280;5892;43.412;24.612;2023-05-23T09:02:39;99788.41;;;26.68;51.56
11672;BME280;5892;43.412;24.612;2023-05-23T09:05:09;99791.81;;;26.36;50.40
11672;BME280;5892;43.412;24.612;2023-05-23T09:07:36;99796.56;;;26.39;50.38
11672;BME280;5892;43.412;24.612;2023-05-23T09:10:05;99781.66;;;26.22;51.14
11672;BME280;5892;43.412;24.612;2023-05-23T09:12:33;99757.56;;;26.21;51.65
11672;BME280;5892;43.412;24.612;2023-05-23T09:15:03;99791.97;;;26.48;49.60
11672;BME280;5892;43.412;24.612;2023-05-23T09:17:30;99758.47;;;26.14;49.86
11672;BME280;5892;43.412;24.612;2023-05-23T09:19:57;99768.75;;;26.25;49.59
11672;BME280;5892;43.412;24.612;2023-05-23T09:22:25;99773.75;;;26.56;49.51
11672;BME280;5892;43.412;24.612;2023-05-23T09:27:19;99780.09;;;26.41;47.89
11672;BME280;5892;43.412;24.612;2023-05-23T09:29:46;99788.94;;;26.39;45.93
11672;BME280;5892;43.412;24.612;2023-05-23T09:32:16;99784.69;;;26.31;46.45
11672;BME280;5892;43.412;24.612;2023-05-23T09:34:54;99793.66;;;25.99;46.32
11672;BME280;5892;43.412;24.612;2023-05-23T09:37:21;99786.44;;;26.22;46.52
11672;BME280;5892;43.412;24.612;2023-05-23T09:39:49;99744.09;;;25.39;48.02
11672;BME280;5892;43.412;24.612;2023-05-23T09:42:20;99758.00;;;25.73;48.37
11672;BME280;5892;43.412;24.612;2023-05-23T09:44:48;99753.56;;;25.99;47.98
11672;BME280;5892;43.412;24.612;2023-05-23T09:47:16;99770.59;;;26.11;48.09
11672;BME280;5892;43.412;24.612;2023-05-23T09:49:45;99780.91;;;25.95;48.12
11672;BME280;5892;43.412;24.612;2023-05-23T09:52:12;99768.78;;;26.21;48.35
11672;BME280;5892;43.412;24.612;2023-05-23T09:54:39;99762.38;;;26.21;46.80
11672;BME280;5892;43.412;24.612;2023-05-23T09:57:09;99762.56;;;26.33;47.38
11672;BME280;5892;43.412;24.612;2023-05-23T09:59:38;99756.41;;;26.62;46.81
11672;BME280;5892;43.412;24.612;2023-05-23T10:02:06;99755.47;;;26.88;45.66
11672;BME280;5892;43.412;24.612;2023-05-23T10:04:36;99744.97;;;27.08;47.20
11672;BME280;5892;43.412;24.612;2023-05-23T10:07:09;99751.44;;;27.25;46.37
11672;BME280;5892;43.412;24.612;2023-05-23T10:09:41;99752.03;;;27.52;45.75
11672;BME280;5892;43.412;24.612;2023-05-23T10:12:45;99745.94;;;27.70;44.48
11672;BME280;5892;43.412;24.612;2023-05-23T10:15:14;99745.06;;;27.73;42.44
11672;BME280;5892;43.412;24.612;2023-05-23T10:17:56;99751.78;;;27.27;43.68
11672;BME280;5892;43.412;24.612;2023-05-23T10:20:29;99751.72;;;27.47;44.70
11672;BME280;5892;43.412;24.612;2023-05-23T10:22:58;99747.88;;;27.57;43.38
11672;BME280;5892;43.412;24.612;2023-05-23T10:25:25;99738.66;;;27.72;42.47
11672;BME280;5892;43.412;24.612;2023-05-23T10:27:54;99743.13;;;27.70;41.97
11672;BME280;5892;43.412;24.612;2023-05-23T10:30:23;99735.22;;;27.65;42.40
11672;BME280;5892;43.412;24.612;2023-05-23T10:32:51;99740.19;;;27.41;42.91
11672;BME280;5892;43.412;24.612;2023-05-23T10:35:24;99738.06;;;27.29;43.45
11672;BME280;5892;43.412;24.612;2023-05-23T10:38:03;99730.81;;;27.64;43.45
11672;BME280;5892;43.412;24.612;2023-05-23T10:40:44;99737.53;;;27.34;40.95
11672;BME280;5892;43.412;24.612;2023-05-23T10:43:16;99714.03;;;27.60;41.51
11672;BME280;5892;43.412;24.612;2023-05-23T10:45:45;99728.03;;;27.28;41.66
11672;BME280;5892;43.412;24.612;2023-05-23T10:48:22;99730.16;;;27.40;43.24
11672;BME280;5892;43.412;24.612;2023-05-23T10:51:02;99732.56;;;26.86;45.08
11672;BME280;5892;43.412;24.612;2023-05-23T10:53:31;99736.22;;;26.47;46.22
11672;BME280;5892;43.412;24.612;2023-05-23T10:56:00;99744.72;;;26.00;47.72
11672;BME280;5892;43.412;24.612;2023-05-23T10:58:28;99720.78;;;25.92;50.47
11672;BME280;5892;43.412;24.612;2023-05-23T11:00:59;99738.06;;;25.14;54.79
11672;BME280;5892;43.412;24.612;2023-05-23T11:03:30;99738.66;;;23.48;64.39
11672;BME280;5892;43.412;24.612;2023-05-23T11:05:58;99757.53;;;22.43;78.11
11672;BME280;5892;43.412;24.612;2023-05-23T11:08:26;99746.44;;;21.83;82.67
11672;BME280;5892;43.412;24.612;2023-05-23T11:10:59;99754.81;;;21.33;79.38
11672;BME280;5892;43.412;24.612;2023-05-23T11:13:54;99719.69;;;21.00;97.37
11672;BME280;5892;43.412;24.612;2023-05-23T11:16:26;99729.22;;;20.96;97.12
11672;BME280;5892;43.412;24.612;2023-05-23T11:19:21;99724.81;;;20.81;95.65
11672;BME280;5892;43.412;24.612;2023-05-23T11:21:52;99727.97;;;20.72;93.82
11672;BME280;5892;43.412;24.612;2023-05-23T11:24:20;99740.38;;;20.92;92.36
11672;BME280;5892;43.412;24.612;2023-05-23T11:26:57;99727.69;;;21.12;90.64
11672;BME280;5892;43.412;24.612;2023-05-23T11:29:26;99725.28;;;21.11;92.82
11672;BME280;5892;43.412;24.612;2023-05-23T11:31:54;99738.06;;;21.26;87.40
11672;BME280;5892;43.412;24.612;2023-05-23T11:34:21;99728.94;;;21.47;84.95
11672;BME280;5892;43.412;24.612;2023-05-23T11:36:52;99723.34;;;21.68;85.13
11672;BME280;5892;43.412;24.612;2023-05-23T11:39:19;99727.75;;;21.94;88.75
11672;BME280;5892;43.412;24.612;2023-05-23T11:41:58;99718.97;;;21.95;88.94
11672;BME280;5892;43.412;24.612;2023-05-23T11:44:25;99714.19;;;21.82;86.32
11672;BME280;5892;43.412;24.612;2023-05-23T11:46:59;99724.91;;;22.22;90.75
11672;BME280;5892;43.412;24.612;2023-05-23T11:49:28;99717.25;;;22.44;93.77
11672;BME280;5892;43.412;24.612;2023-05-23T11:51:54;99701.19;;;22.73;87.18
11672;BME280;5892;43.412;24.612;2023-05-23T11:54:22;99700.56;;;23.10;89.44
11672;BME280;5892;43.412;24.612;2023-05-23T11:56:49;99710.00;;;23.34;80.68
11672;BME280;5892;43.412;24.612;2023-05-23T11:59:18;99672.06;;;23.33;77.48
11672;BME280;5892;43.412;24.612;2023-05-23T12:01:44;99697.78;;;23.65;71.68
11672;BME280;5892;43.412;24.612;2023-05-23T12:04:11;99699.53;;;23.89;69.04
11672;BME280;5892;43.412;24.612;2023-05-23T12:06:39;99615.00;;;23.27;64.98
11672;BME280;5892;43.412;24.612;2023-05-23T12:09:06;99687.19;;;23.83;63.31
11672;BME280;5892;43.412;24.612;2023-05-23T12:11:34;99686.28;;;23.93;63.75
11672;BME280;5892;43.412;24.612;2023-05-23T12:14:01;99693.81;;;24.00;63.28
11672;BME280;5892;43.412;24.612;2023-05-23T12:16:32;99691.63;;;24.18;63.70
11672;BME280;5892;43.412;24.612;2023-05-23T12:19:01;99690.97;;;24.41;64.23
11672;BME280;5892;43.412;24.612;2023-05-23T12:21:39;99656.03;;;24.22;66.37
11672;BME280;5892;43.412;24.612;2023-05-23T12:24:17;99674.72;;;24.29;64.22
11672;BME280;5892;43.412;24.612;2023-05-23T12:26:48;99619.28;;;24.13;61.18
11672;BME280;5892;43.412;24.612;2023-05-23T12:29:18;99673.75;;;24.73;61.27
11672;BME280;5892;43.412;24.612;2023-05-23T12:31:49;99667.22;;;24.83;57.59
11672;BME280;5892;43.412;24.612;2023-05-23T12:34:18;99652.78;;;24.84;59.99
11672;BME280;5892;43.412;24.612;2023-05-23T12:36:45;99675.00;;;25.25;58.88
11672;BME280;5892;43.412;24.612;2023-05-23T12:39:14;99670.50;;;25.31;55.88
11672;BME280;5892;43.412;24.612;2023-05-23T12:41:41;99671.78;;;25.50;55.04
11672;BME280;5892;43.412;24.612;2023-05-23T12:44:09;99654.75;;;25.64;55.87
11672;BME280;5892;43.412;24.612;2023-05-23T12:46:38;99655.66;;;25.54;53.37
11672;BME280;5892;43.412;24.612;2023-05-23T12:49:07;99661.44;;;25.70;54.06
11672;BME280;5892;43.412;24.612;2023-05-23T12:51:33;99660.00;;;25.82;53.57
11672;BME280;5892;43.412;24.612;2023-05-23T12:54:00;99643.84;;;25.90;53.16
11672;BME280;5892;43.412;24.612;2023-05-23T12:56:27;99642.47;;;25.98;49.93
11672;BME280;5892;43.412;24.612;2023-05-23T12:58:54;99642.13;;;25.96;47.70
11672;BME280;5892;43.412;24.612;2023-05-23T13:01:23;99638.56;;;25.92;47.66
11672;BME280;5892;43.412;24.612;2023-05-23T13:03:50;99639.06;;;25.87;47.27
11672;BME280;5892;43.412;24.612;2023-05-23T13:06:18;99634.44;;;26.00;48.53
11672;BME280;5892;43.412;24.612;2023-05-23T13:08:45;99598.94;;;25.90;46.72